sensor_id;sensor_type;location;lat;lon;timestamp;temperature;humidity
814;DHT22;389;48.710;9.392;2023-08-30T00:01:43;14.80;99.90
814;DHT22;389;48.710;9.392;2023-08-30T00:04:09;14.80;99.90
814;DHT22;389;48.710;9.392;2023-08-30T00:06:34;14.80;99.90
814;DHT22;389;48.710;9.392;2023-08-30T00:09:00;14.80;99.90
814;DHT22;389;48.710;9.392;2023-08-30T00:11:25;14.80;99.90
814;DHT22;389;48.710;9.392;2023-08-30T00:13:51;14.80;99.90
814;DHT22;389;48.710;9.392;2023-08-30T00:16:17;14.80;99.90
814;DHT22;389;48.710;9.392;2023-08-30T00:18:43;14.80;99.90
814;DHT22;389;48.710;9.392;2023-08-30T00:21:09;14.80;99.90
814;DHT22;389;48.710;9.392;2023-08-30T00:23:35;14.80;99.90
814;DHT22;389;48.710;9.392;2023-08-30T00:26:01;14.80;99.90
814;DHT22;389;48.710;9.392;2023-08-30T00:28:26;14.80;99.90
814;DHT22;389;48.710;9.392;2023-08-30T00:30:55;14.80;99.90
814;DHT22;389;48.710;9.392;2023-08-30T00:33:21;14.80;99.90
814;DHT22;389;48.710;9.392;2023-08-30T00:35:46;14.80;99.90
814;DHT22;389;48.710;9.392;2023-08-30T00:38:20;14.70;99.90
814;DHT22;389;48.710;9.392;2023-08-30T00:40:45;14.70;99.90
814;DHT22;389;48.710;9.392;2023-08-30T00:43:11;14.70;99.90
814;DHT22;389;48.710;9.392;2023-08-30T00:45:38;14.70;99.90
814;DHT22;389;48.710;9.392;2023-08-30T00:48:05;14.70;99.90
814;DHT22;389;48.710;9.392;2023-08-30T00:50:30;14.60;99.90
814;DHT22;389;48.710;9.392;2023-08-30T00:52:56;14.60;99.90
814;DHT22;389;48.710;9.392;2023-08-30T00:55:21;14.60;99.90
814;DHT22;389;48.710;9.392;2023-08-30T00:57:47;14.60;99.90
814;DHT22;389;48.710;9.392;2023-08-30T01:00:12;14.50;99.90
814;DHT22;389;48.710;9.392;2023-08-30T01:02:38;14.50;99.90
814;DHT22;389;48.710;9.392;2023-08-30T01:05:04;14.50;99.90
814;DHT22;389;48.710;9.392;2023-08-30T01:07:30;14.40;99.90
814;DHT22;389;48.710;9.392;2023-08-30T01:09:57;14.50;99.90
814;DHT22;389;48.710;9.392;2023-08-30T01:12:29;14.30;99.90
814;DHT22;389;48.710;9.392;2023-08-30T01:17:32;14.40;99.90
814;DHT22;389;48.710;9.392;2023-08-30T01:20:01;14.20;99.90
814;DHT22;389;48.710;9.392;2023-08-30T01:25:47;14.20;99.90
814;DHT22;389;48.710;9.392;2023-08-30T01:28:19;14.20;99.90
814;DHT22;389;48.710;9.392;2023-08-30T01:30:45;14.10;99.90
814;DHT22;389;48.710;9.392;2023-08-30T01:33:14;14.10;99.90
814;DHT22;389;48.710;9.392;2023-08-30T01:35:41;14.10;99.90
814;DHT22;389;48.710;9.392;2023-08-30T01:38:07;14.10;99.90
814;DHT22;389;48.710;9.392;2023-08-30T01:40:39;14.10;99.90
814;DHT22;389;48.710;9.392;2023-08-30T01:43:09;14.10;99.90
814;DHT22;389;48.710;9.392;2023-08-30T01:45:39;14.00;99.90
814;DHT22;389;48.710;9.392;2023-08-30T01:48:08;14.00;99.90
814;DHT22;389;48.710;9.392;2023-08-30T01:50:34;13.90;99.90
814;DHT22;389;48.710;9.392;2023-08-30T01:53:00;13.90;99.90
814;DHT22;389;48.710;9.392;2023-08-30T01:55:28;13.90;99.90
814;DHT22;389;48.710;9.392;2023-08-30T01:57:54;13.90;99.90
814;DHT22;389;48.710;9.392;2023-08-30T02:00:20;13.90;99.90
814;DHT22;389;48.710;9.392;2023-08-30T02:02:47;13.90;99.90
814;DHT22;389;48.710;9.392;2023-08-30T02:05:13;13.80;99.90
814;DHT22;389;48.710;9.392;2023-08-30T02:10:28;13.70;99.90
814;DHT22;389;48.710;9.392;2023-08-30T02:12:57;13.70;99.90
814;DHT22;389;48.710;9.392;2023-08-30T02:15:25;13.60;99.90
814;DHT22;389;48.710;9.392;2023-08-30T02:17:52;13.60;99.90
814;DHT22;389;48.710;9.392;2023-08-30T02:20:18;13.60;99.90
814;DHT22;389;48.710;9.392;2023-08-30T02:22:44;13.60;99.90
814;DHT22;389;48.710;9.392;2023-08-30T02:25:10;13.50;99.90
814;DHT22;389;48.710;9.392;2023-08-30T02:27:35;13.50;99.90
814;DHT22;389;48.710;9.392;2023-08-30T02:30:01;13.60;99.90
814;DHT22;389;48.710;9.392;2023-08-30T02:32:28;13.50;99.90
814;DHT22;389;48.710;9.392;2023-08-30T02:34:55;13.60;99.90
814;DHT22;389;48.710;9.392;2023-08-30T02:37:21;13.60;99.90
814;DHT22;389;48.710;9.392;2023-08-30T02:39:47;13.60;99.90
814;DHT22;389;48.710;9.392;2023-08-30T02:42:12;13.60;99.90
814;DHT22;389;48.710;9.392;2023-08-30T02:44:38;13.70;99.90
814;DHT22;389;48.710;9.392;2023-08-30T02:47:04;13.80;99.90
814;DHT22;389;48.710;9.392;2023-08-30T02:49:32;13.80;99.90
814;DHT22;389;48.710;9.392;2023-08-30T02:51:57;13.70;99.90
814;DHT22;389;48.710;9.392;2023-08-30T02:54:23;13.70;99.90
814;DHT22;389;48.710;9.392;2023-08-30T02:56:49;13.80;99.90
814;DHT22;389;48.710;9.392;2023-08-30T02:59:15;13.80;99.90
814;DHT22;389;48.710;9.392;2023-08-30T03:01:40;13.80;99.90
814;DHT22;389;48.710;9.392;2023-08-30T03:04:07;13.90;99.90
814;DHT22;389;48.710;9.392;2023-08-30T03:06:33;13.90;99.90
814;DHT22;389;48.710;9.392;2023-08-30T03:08:59;13.90;99.90
814;DHT22;389;48.710;9.392;2023-08-30T03:11:25;13.90;99.90
814;DHT22;389;48.710;9.392;2023-08-30T03:13:54;13.90;99.90
814;DHT22;389;48.710;9.392;2023-08-30T03:16:20;14.00;99.90
814;DHT22;389;48.710;9.392;2023-08-30T03:18:46;14.00;99.90
814;DHT22;389;48.710;9.392;2023-08-30T03:21:13;14.00;99.90
814;DHT22;389;48.710;9.392;2023-08-30T03:23:39;14.20;99.90
814;DHT22;389;48.710;9.392;2023-08-30T03:26:13;14.00;99.90
814;DHT22;389;48.710;9.392;2023-08-30T03:28:39;14.00;99.90
814;DHT22;389;48.710;9.392;2023-08-30T03:31:15;14.00;99.90
814;DHT22;389;48.710;9.392;2023-08-30T03:33:41;14.10;99.90
814;DHT22;389;48.710;9.392;2023-08-30T03:36:11;14.10;99.90
814;DHT22;389;48.710;9.392;2023-08-30T03:38:37;14.10;99.90
814;DHT22;389;48.710;9.392;2023-08-30T03:41:03;14.10;99.90
814;DHT22;389;48.710;9.392;2023-08-30T03:43:30;14.10;99.90
814;DHT22;389;48.710;9.392;2023-08-30T03:45:55;14.10;99.90
814;DHT22;389;48.710;9.392;2023-08-30T03:48:21;14.00;99.90
814;DHT22;389;48.710;9.392;2023-08-30T03:50:47;14.10;99.90
814;DHT22;389;48.710;9.392;2023-08-30T03:53:12;14.00;99.90
814;DHT22;389;48.710;9.392;2023-08-30T03:55:38;14.00;99.90
814;DHT22;389;48.710;9.392;2023-08-30T03:58:03;14.00;99.90
814;DHT22;389;48.710;9.392;2023-08-30T04:00:29;14.00;99.90
814;DHT22;389;48.710;9.392;2023-08-30T04:02:55;13.90;99.90
814;DHT22;389;48.710;9.392;2023-08-30T04:05:20;13.90;99.90
814;DHT22;389;48.710;9.392;2023-08-30T04:07:46;13.90;99.90
814;DHT22;389;48.710;9.392;2023-08-30T04:10:11;13.90;99.90
814;DHT22;389;48.710;9.392;2023-08-30T04:12:37;13.90;99.90
814;DHT22;389;48.710;9.392;2023-08-30T04:15:02;13.90;99.90
814;DHT22;389;48.710;9.392;2023-08-30T04:17:28;13.90;99.90
814;DHT22;389;48.710;9.392;2023-08-30T04:19:54;14.00;99.90
814;DHT22;389;48.710;9.392;2023-08-30T04:22:19;14.00;99.90
814;DHT22;389;48.710;9.392;2023-08-30T04:24:46;14.00;99.90
814;DHT22;389;48.710;9.392;2023-08-30T04:27:12;14.00;99.90
814;DHT22;389;48.710;9.392;2023-08-30T04:29:38;14.00;99.90
814;DHT22;389;48.710;9.392;2023-08-30T04:32:03;14.10;99.90
814;DHT22;389;48.710;9.392;2023-08-30T04:34:30;14.10;99.90
814;DHT22;389;48.710;9.392;2023-08-30T04:36:56;14.10;99.90
814;DHT22;389;48.710;9.392;2023-08-30T04:39:21;14.10;99.90
814;DHT22;389;48.710;9.392;2023-08-30T04:41:47;14.20;99.90
814;DHT22;389;48.710;9.392;2023-08-30T04:44:12;14.20;99.90
814;DHT22;389;48.710;9.392;2023-08-30T04:46:38;14.20;99.90
814;DHT22;389;48.710;9.392;2023-08-30T04:49:03;14.10;99.90
814;DHT22;389;48.710;9.392;2023-08-30T04:51:29;14.10;99.90
814;DHT22;389;48.710;9.392;2023-08-30T04:53:55;14.20;99.90
814;DHT22;389;48.710;9.392;2023-08-30T04:56:20;14.20;99.90
814;DHT22;389;48.710;9.392;2023-08-30T04:58:46;14.20;99.90
814;DHT22;389;48.710;9.392;2023-08-30T05:01:12;14.20;99.90
814;DHT22;389;48.710;9.392;2023-08-30T05:03:39;14.30;99.90
814;DHT22;389;48.710;9.392;2023-08-30T05:06:04;14.30;99.90
814;DHT22;389;48.710;9.392;2023-08-30T05:08:30;14.30;99.90
814;DHT22;389;48.710;9.392;2023-08-30T05:10:56;14.30;99.90
814;DHT22;389;48.710;9.392;2023-08-30T05:13:21;14.30;99.90
814;DHT22;389;48.710;9.392;2023-08-30T05:15:47;14.40;99.90
814;DHT22;389;48.710;9.392;2023-08-30T05:18:12;14.40;99.90
814;DHT22;389;48.710;9.392;2023-08-30T05:20:38;14.40;99.90
814;DHT22;389;48.710;9.392;2023-08-30T05:23:03;14.50;99.90
814;DHT22;389;48.710;9.392;2023-08-30T05:25:29;14.50;99.90
814;DHT22;389;48.710;9.392;2023-08-30T05:27:54;14.50;99.90
814;DHT22;389;48.710;9.392;2023-08-30T05:30:20;14.60;99.90
814;DHT22;389;48.710;9.392;2023-08-30T05:32:45;14.60;99.90
814;DHT22;389;48.710;9.392;2023-08-30T05:35:11;14.70;99.90
814;DHT22;389;48.710;9.392;2023-08-30T05:37:37;14.70;99.90
814;DHT22;389;48.710;9.392;2023-08-30T05:40:02;14.80;99.90
814;DHT22;389;48.710;9.392;2023-08-30T05:42:29;14.80;99.90
814;DHT22;389;48.710;9.392;2023-08-30T05:44:54;14.90;99.90
814;DHT22;389;48.710;9.392;2023-08-30T05:47:20;15.00;99.90
814;DHT22;389;48.710;9.392;2023-08-30T05:49:46;15.00;99.90
814;DHT22;389;48.710;9.392;2023-08-30T05:52:12;15.10;99.90
814;DHT22;389;48.710;9.392;2023-08-30T05:54:37;15.10;99.90
814;DHT22;389;48.710;9.392;2023-08-30T05:57:03;15.20;99.90
814;DHT22;389;48.710;9.392;2023-08-30T05:59:29;15.30;99.90
814;DHT22;389;48.710;9.392;2023-08-30T06:01:54;15.30;99.90
814;DHT22;389;48.710;9.392;2023-08-30T06:04:20;15.40;99.90
814;DHT22;389;48.710;9.392;2023-08-30T06:06:46;15.40;99.90
814;DHT22;389;48.710;9.392;2023-08-30T06:09:11;15.50;99.90
814;DHT22;389;48.710;9.392;2023-08-30T06:11:40;15.60;99.90
814;DHT22;389;48.710;9.392;2023-08-30T06:14:05;15.60;99.90
814;DHT22;389;48.710;9.392;2023-08-30T06:16:31;15.70;99.90
814;DHT22;389;48.710;9.392;2023-08-30T06:18:57;15.70;99.90
814;DHT22;389;48.710;9.392;2023-08-30T06:21:25;15.80;99.90
814;DHT22;389;48.710;9.392;2023-08-30T06:23:50;15.90;99.90
814;DHT22;389;48.710;9.392;2023-08-30T06:26:16;15.90;99.90
814;DHT22;389;48.710;9.392;2023-08-30T06:28:41;16.00;99.90
814;DHT22;389;48.710;9.392;2023-08-30T06:31:08;16.20;99.90
814;DHT22;389;48.710;9.392;2023-08-30T06:33:33;16.20;99.90
814;DHT22;389;48.710;9.392;2023-08-30T06:35:59;16.20;99.90
814;DHT22;389;48.710;9.392;2023-08-30T06:38:25;16.20;99.90
814;DHT22;389;48.710;9.392;2023-08-30T06:40:50;16.30;99.90
814;DHT22;389;48.710;9.392;2023-08-30T06:43:16;16.30;99.90
814;DHT22;389;48.710;9.392;2023-08-30T06:45:42;16.40;99.90
814;DHT22;389;48.710;9.392;2023-08-30T06:48:08;16.40;99.90
814;DHT22;389;48.710;9.392;2023-08-30T06:50:34;16.50;99.90
814;DHT22;389;48.710;9.392;2023-08-30T06:53:01;16.60;99.90
814;DHT22;389;48.710;9.392;2023-08-30T06:55:26;16.60;99.90
814;DHT22;389;48.710;9.392;2023-08-30T06:57:52;16.70;99.90
814;DHT22;389;48.710;9.392;2023-08-30T07:00:18;16.80;99.90
814;DHT22;389;48.710;9.392;2023-08-30T07:02:44;16.80;99.90
814;DHT22;389;48.710;9.392;2023-08-30T07:05:14;16.90;99.90
814;DHT22;389;48.710;9.392;2023-08-30T07:07:40;17.00;99.90
814;DHT22;389;48.710;9.392;2023-08-30T07:10:06;17.10;99.90
814;DHT22;389;48.710;9.392;2023-08-30T07:12:32;17.20;99.90
814;DHT22;389;48.710;9.392;2023-08-30T07:14:57;17.30;99.90
814;DHT22;389;48.710;9.392;2023-08-30T07:17:23;17.30;99.90
814;DHT22;389;48.710;9.392;2023-08-30T07:19:49;17.50;99.90
814;DHT22;389;48.710;9.392;2023-08-30T07:22:15;17.50;99.90
814;DHT22;389;48.710;9.392;2023-08-30T07:24:44;17.60;99.90
814;DHT22;389;48.710;9.392;2023-08-30T07:27:10;17.80;99.90
814;DHT22;389;48.710;9.392;2023-08-30T07:29:38;17.80;99.90
814;DHT22;389;48.710;9.392;2023-08-30T07:32:05;17.90;99.90
814;DHT22;389;48.710;9.392;2023-08-30T07:34:31;18.00;99.90
814;DHT22;389;48.710;9.392;2023-08-30T07:36:56;18.10;99.90
814;DHT22;389;48.710;9.392;2023-08-30T07:39:22;18.20;99.90
814;DHT22;389;48.710;9.392;2023-08-30T07:41:47;18.30;99.90
814;DHT22;389;48.710;9.392;2023-08-30T07:44:13;18.40;99.90
814;DHT22;389;48.710;9.392;2023-08-30T07:46:38;18.60;99.90
814;DHT22;389;48.710;9.392;2023-08-30T07:49:04;18.50;99.90
814;DHT22;389;48.710;9.392;2023-08-30T07:51:29;18.60;99.90
814;DHT22;389;48.710;9.392;2023-08-30T07:53:55;18.60;99.80
814;DHT22;389;48.710;9.392;2023-08-30T07:56:20;18.70;99.80
814;DHT22;389;48.710;9.392;2023-08-30T07:58:46;18.70;99.00
814;DHT22;389;48.710;9.392;2023-08-30T08:01:11;18.80;99.20
814;DHT22;389;48.710;9.392;2023-08-30T08:03:37;18.90;99.30
814;DHT22;389;48.710;9.392;2023-08-30T08:06:03;19.00;99.30
814;DHT22;389;48.710;9.392;2023-08-30T08:08:28;19.10;99.30
814;DHT22;389;48.710;9.392;2023-08-30T08:10:54;19.20;99.10
814;DHT22;389;48.710;9.392;2023-08-30T08:13:20;19.30;98.90
814;DHT22;389;48.710;9.392;2023-08-30T08:15:46;19.40;98.90
814;DHT22;389;48.710;9.392;2023-08-30T08:18:11;19.60;98.90
814;DHT22;389;48.710;9.392;2023-08-30T08:20:37;19.50;98.40
814;DHT22;389;48.710;9.392;2023-08-30T08:23:03;19.60;98.20
814;DHT22;389;48.710;9.392;2023-08-30T08:25:31;19.70;98.00
814;DHT22;389;48.710;9.392;2023-08-30T08:27:57;19.80;98.00
814;DHT22;389;48.710;9.392;2023-08-30T08:30:23;19.90;98.00
814;DHT22;389;48.710;9.392;2023-08-30T08:32:48;19.90;97.50
814;DHT22;389;48.710;9.392;2023-08-30T08:35:14;20.00;97.30
814;DHT22;389;48.710;9.392;2023-08-30T08:37:40;20.00;97.10
814;DHT22;389;48.710;9.392;2023-08-30T08:40:06;20.20;97.30
814;DHT22;389;48.710;9.392;2023-08-30T08:42:34;20.20;97.30
814;DHT22;389;48.710;9.392;2023-08-30T08:45:02;20.30;96.90
814;DHT22;389;48.710;9.392;2023-08-30T08:47:30;20.40;96.60
814;DHT22;389;48.710;9.392;2023-08-30T08:49:55;20.60;96.40
814;DHT22;389;48.710;9.392;2023-08-30T08:52:21;20.70;96.30
814;DHT22;389;48.710;9.392;2023-08-30T08:54:48;20.60;95.90
814;DHT22;389;48.710;9.392;2023-08-30T08:57:13;20.80;96.00
814;DHT22;389;48.710;9.392;2023-08-30T08:59:39;20.90;95.30
814;DHT22;389;48.710;9.392;2023-08-30T09:02:06;20.90;95.40
814;DHT22;389;48.710;9.392;2023-08-30T09:04:32;21.00;95.30
814;DHT22;389;48.710;9.392;2023-08-30T09:07:02;21.10;94.60
814;DHT22;389;48.710;9.392;2023-08-30T09:09:27;21.20;94.50
814;DHT22;389;48.710;9.392;2023-08-30T09:11:53;21.40;94.10
814;DHT22;389;48.710;9.392;2023-08-30T09:14:19;21.40;93.90
814;DHT22;389;48.710;9.392;2023-08-30T09:17:02;21.50;93.60
814;DHT22;389;48.710;9.392;2023-08-30T09:19:28;21.60;93.30
814;DHT22;389;48.710;9.392;2023-08-30T09:21:55;21.60;92.90
814;DHT22;389;48.710;9.392;2023-08-30T09:24:21;21.80;92.90
814;DHT22;389;48.710;9.392;2023-08-30T09:26:48;21.80;92.90
814;DHT22;389;48.710;9.392;2023-08-30T09:29:17;21.90;92.60
814;DHT22;389;48.710;9.392;2023-08-30T09:31:43;21.80;92.50
814;DHT22;389;48.710;9.392;2023-08-30T09:34:09;21.90;92.40
814;DHT22;389;48.710;9.392;2023-08-30T09:36:38;21.90;92.20
814;DHT22;389;48.710;9.392;2023-08-30T09:39:09;22.00;91.90
814;DHT22;389;48.710;9.392;2023-08-30T09:41:35;22.10;91.90
814;DHT22;389;48.710;9.392;2023-08-30T09:44:07;22.10;91.80
814;DHT22;389;48.710;9.392;2023-08-30T09:46:39;22.10;91.90
814;DHT22;389;48.710;9.392;2023-08-30T09:49:05;22.20;91.00
814;DHT22;389;48.710;9.392;2023-08-30T09:51:31;22.30;90.80
814;DHT22;389;48.710;9.392;2023-08-30T09:53:58;22.40;91.20
814;DHT22;389;48.710;9.392;2023-08-30T09:56:27;22.40;91.20
814;DHT22;389;48.710;9.392;2023-08-30T09:58:53;22.70;91.20
814;DHT22;389;48.710;9.392;2023-08-30T10:01:19;22.70;90.90
814;DHT22;389;48.710;9.392;2023-08-30T10:03:45;22.90;90.90
814;DHT22;389;48.710;9.392;2023-08-30T10:06:12;23.00;90.50
814;DHT22;389;48.710;9.392;2023-08-30T10:08:38;23.10;90.10
814;DHT22;389;48.710;9.392;2023-08-30T10:11:05;23.30;90.50
814;DHT22;389;48.710;9.392;2023-08-30T10:13:33;23.30;90.10
814;DHT22;389;48.710;9.392;2023-08-30T10:16:01;23.30;90.40
814;DHT22;389;48.710;9.392;2023-08-30T10:18:29;23.40;89.90
814;DHT22;389;48.710;9.392;2023-08-30T10:20:57;23.40;89.10
814;DHT22;389;48.710;9.392;2023-08-30T10:23:25;23.40;89.00
814;DHT22;389;48.710;9.392;2023-08-30T10:25:52;23.40;89.20
814;DHT22;389;48.710;9.392;2023-08-30T10:28:19;23.40;87.60
814;DHT22;389;48.710;9.392;2023-08-30T10:30:46;23.30;87.80
814;DHT22;389;48.710;9.392;2023-08-30T10:33:15;23.20;87.80
814;DHT22;389;48.710;9.392;2023-08-30T10:35:49;23.10;88.10
814;DHT22;389;48.710;9.392;2023-08-30T10:38:25;23.10;88.30
814;DHT22;389;48.710;9.392;2023-08-30T10:40:55;23.10;88.30
814;DHT22;389;48.710;9.392;2023-08-30T10:43:33;23.10;87.60
814;DHT22;389;48.710;9.392;2023-08-30T10:46:03;23.10;88.10
814;DHT22;389;48.710;9.392;2023-08-30T10:48:39;23.10;88.00
814;DHT22;389;48.710;9.392;2023-08-30T10:51:20;23.10;88.30
814;DHT22;389;48.710;9.392;2023-08-30T10:53:59;23.10;89.40
814;DHT22;389;48.710;9.392;2023-08-30T10:56:29;23.10;87.70
814;DHT22;389;48.710;9.392;2023-08-30T10:58:55;23.20;87.40
814;DHT22;389;48.710;9.392;2023-08-30T11:01:20;23.40;85.50
814;DHT22;389;48.710;9.392;2023-08-30T11:03:46;23.30;83.80
814;DHT22;389;48.710;9.392;2023-08-30T11:06:16;23.30;84.00
814;DHT22;389;48.710;9.392;2023-08-30T11:08:43;23.50;84.40
814;DHT22;389;48.710;9.392;2023-08-30T11:11:09;23.30;84.20
814;DHT22;389;48.710;9.392;2023-08-30T11:13:36;23.30;84.30
814;DHT22;389;48.710;9.392;2023-08-30T11:16:02;23.40;84.10
814;DHT22;389;48.710;9.392;2023-08-30T11:18:30;23.40;83.10
814;DHT22;389;48.710;9.392;2023-08-30T11:21:02;23.40;83.70
814;DHT22;389;48.710;9.392;2023-08-30T11:23:28;23.50;83.40
814;DHT22;389;48.710;9.392;2023-08-30T11:25:54;23.60;83.60
814;DHT22;389;48.710;9.392;2023-08-30T11:28:26;23.50;82.90
814;DHT22;389;48.710;9.392;2023-08-30T11:30:55;23.60;83.00
814;DHT22;389;48.710;9.392;2023-08-30T11:33:21;23.60;82.40
814;DHT22;389;48.710;9.392;2023-08-30T11:35:50;23.50;83.50
814;DHT22;389;48.710;9.392;2023-08-30T11:38:17;23.60;83.00
814;DHT22;389;48.710;9.392;2023-08-30T11:40:43;23.60;84.00
814;DHT22;389;48.710;9.392;2023-08-30T11:43:10;23.70;82.80
814;DHT22;389;48.710;9.392;2023-08-30T11:45:35;23.70;82.10
814;DHT22;389;48.710;9.392;2023-08-30T11:48:02;23.80;81.50
814;DHT22;389;48.710;9.392;2023-08-30T11:50:28;23.90;81.70
814;DHT22;389;48.710;9.392;2023-08-30T11:52:54;23.90;81.00
814;DHT22;389;48.710;9.392;2023-08-30T11:55:23;24.00;80.80
814;DHT22;389;48.710;9.392;2023-08-30T11:57:49;24.20;82.10
814;DHT22;389;48.710;9.392;2023-08-30T12:00:18;24.40;80.20
814;DHT22;389;48.710;9.392;2023-08-30T12:02:46;24.30;80.40
814;DHT22;389;48.710;9.392;2023-08-30T12:05:15;24.50;79.70
814;DHT22;389;48.710;9.392;2023-08-30T12:07:41;24.50;79.80
814;DHT22;389;48.710;9.392;2023-08-30T12:10:10;24.60;79.20
814;DHT22;389;48.710;9.392;2023-08-30T12:12:36;24.70;80.00
814;DHT22;389;48.710;9.392;2023-08-30T12:15:12;24.80;80.70
814;DHT22;389;48.710;9.392;2023-08-30T12:17:39;25.00;79.60
814;DHT22;389;48.710;9.392;2023-08-30T12:20:05;25.10;77.60
814;DHT22;389;48.710;9.392;2023-08-30T12:22:38;25.20;77.00
814;DHT22;389;48.710;9.392;2023-08-30T12:25:04;25.30;78.00
814;DHT22;389;48.710;9.392;2023-08-30T12:27:29;25.40;76.90
814;DHT22;389;48.710;9.392;2023-08-30T12:29:55;25.50;76.90
814;DHT22;389;48.710;9.392;2023-08-30T12:32:21;25.60;76.40
814;DHT22;389;48.710;9.392;2023-08-30T12:34:46;25.70;75.60
814;DHT22;389;48.710;9.392;2023-08-30T12:37:12;25.80;75.40
814;DHT22;389;48.710;9.392;2023-08-30T12:39:37;25.60;73.90
814;DHT22;389;48.710;9.392;2023-08-30T12:42:03;25.30;73.90
814;DHT22;389;48.710;9.392;2023-08-30T12:44:29;24.60;74.50
814;DHT22;389;48.710;9.392;2023-08-30T12:46:55;23.90;76.40
814;DHT22;389;48.710;9.392;2023-08-30T12:49:20;23.30;77.70
814;DHT22;389;48.710;9.392;2023-08-30T12:51:46;22.70;80.50
814;DHT22;389;48.710;9.392;2023-08-30T12:54:12;22.20;85.10
814;DHT22;389;48.710;9.392;2023-08-30T12:56:38;21.60;90.80
814;DHT22;389;48.710;9.392;2023-08-30T12:59:04;21.10;92.00
814;DHT22;389;48.710;9.392;2023-08-30T13:01:29;20.50;93.40
814;DHT22;389;48.710;9.392;2023-08-30T13:03:55;20.10;94.20
814;DHT22;389;48.710;9.392;2023-08-30T13:06:20;19.70;94.00
814;DHT22;389;48.710;9.392;2023-08-30T13:08:46;19.40;94.90
814;DHT22;389;48.710;9.392;2023-08-30T13:11:11;19.10;94.70
814;DHT22;389;48.710;9.392;2023-08-30T13:13:37;18.90;95.50
814;DHT22;389;48.710;9.392;2023-08-30T13:16:02;18.90;96.20
814;DHT22;389;48.710;9.392;2023-08-30T13:18:28;18.80;96.20
814;DHT22;389;48.710;9.392;2023-08-30T13:20:54;18.80;96.30
814;DHT22;389;48.710;9.392;2023-08-30T13:23:20;18.80;97.10
814;DHT22;389;48.710;9.392;2023-08-30T13:25:47;19.00;97.60
814;DHT22;389;48.710;9.392;2023-08-30T13:28:14;19.00;97.50
814;DHT22;389;48.710;9.392;2023-08-30T13:30:46;19.20;97.20
814;DHT22;389;48.710;9.392;2023-08-30T13:33:12;19.20;97.10
814;DHT22;389;48.710;9.392;2023-08-30T13:35:40;19.50;97.10
814;DHT22;389;48.710;9.392;2023-08-30T13:38:06;19.70;97.20
814;DHT22;389;48.710;9.392;2023-08-30T13:40:32;19.80;96.80
814;DHT22;389;48.710;9.392;2023-08-30T13:42:57;19.90;96.80
814;DHT22;389;48.710;9.392;2023-08-30T13:45:23;20.00;97.00
814;DHT22;389;48.710;9.392;2023-08-30T13:47:48;20.10;97.20
814;DHT22;389;48.710;9.392;2023-08-30T13:50:17;20.20;97.20
814;DHT22;389;48.710;9.392;2023-08-30T13:52:42;20.30;96.90
814;DHT22;389;48.710;9.392;2023-08-30T13:55:08;20.30;96.40
814;DHT22;389;48.710;9.392;2023-08-30T13:57:33;20.30;96.90
814;DHT22;389;48.710;9.392;2023-08-30T13:59:59;20.40;97.00
814;DHT22;389;48.710;9.392;2023-08-30T14:02:27;20.60;97.10
814;DHT22;389;48.710;9.392;2023-08-30T14:04:53;20.70;97.10
814;DHT22;389;48.710;9.392;2023-08-30T14:07:18;20.90;97.00
814;DHT22;389;48.710;9.392;2023-08-30T14:09:44;21.00;96.70
814;DHT22;389;48.710;9.392;2023-08-30T14:12:10;21.10;96.60
814;DHT22;389;48.710;9.392;2023-08-30T14:14:35;21.30;96.20
814;DHT22;389;48.710;9.392;2023-08-30T14:17:01;21.40;95.80
814;DHT22;389;48.710;9.392;2023-08-30T14:19:27;21.40;94.90
814;DHT22;389;48.710;9.392;2023-08-30T14:21:53;21.50;94.40
814;DHT22;389;48.710;9.392;2023-08-30T14:24:20;21.50;95.00
814;DHT22;389;48.710;9.392;2023-08-30T14:26:46;21.60;95.20
814;DHT22;389;48.710;9.392;2023-08-30T14:29:11;21.80;95.00
814;DHT22;389;48.710;9.392;2023-08-30T14:31:37;21.80;94.20
814;DHT22;389;48.710;9.392;2023-08-30T14:34:02;22.00;94.00
814;DHT22;389;48.710;9.392;2023-08-30T14:36:28;22.00;93.70
814;DHT22;389;48.710;9.392;2023-08-30T14:38:53;22.30;93.40
814;DHT22;389;48.710;9.392;2023-08-30T14:41:19;22.40;93.20
814;DHT22;389;48.710;9.392;2023-08-30T14:43:44;22.50;93.20
814;DHT22;389;48.710;9.392;2023-08-30T14:46:10;22.70;93.00
814;DHT22;389;48.710;9.392;2023-08-30T14:48:35;22.70;92.10
814;DHT22;389;48.710;9.392;2023-08-30T14:51:05;22.80;91.80
814;DHT22;389;48.710;9.392;2023-08-30T14:53:31;22.80;91.60
814;DHT22;389;48.710;9.392;2023-08-30T14:55:56;22.90;90.50
814;DHT22;389;48.710;9.392;2023-08-30T14:58:22;22.90;90.60
814;DHT22;389;48.710;9.392;2023-08-30T15:00:48;23.00;91.00
814;DHT22;389;48.710;9.392;2023-08-30T15:03:15;23.00;90.80
814;DHT22;389;48.710;9.392;2023-08-30T15:05:40;23.00;91.10
814;DHT22;389;48.710;9.392;2023-08-30T15:08:06;23.10;91.40
814;DHT22;389;48.710;9.392;2023-08-30T15:10:32;23.00;91.50
814;DHT22;389;48.710;9.392;2023-08-30T15:12:57;23.00;91.40
814;DHT22;389;48.710;9.392;2023-08-30T15:15:23;23.00;91.10
814;DHT22;389;48.710;9.392;2023-08-30T15:17:48;23.00;90.00
814;DHT22;389;48.710;9.392;2023-08-30T15:20:14;23.00;89.50
814;DHT22;389;48.710;9.392;2023-08-30T15:22:40;22.90;89.70
814;DHT22;389;48.710;9.392;2023-08-30T15:25:05;23.00;90.10
814;DHT22;389;48.710;9.392;2023-08-30T15:27:33;23.00;88.90
814;DHT22;389;48.710;9.392;2023-08-30T15:29:59;23.00;88.40
814;DHT22;389;48.710;9.392;2023-08-30T15:32:25;23.00;88.50
814;DHT22;389;48.710;9.392;2023-08-30T15:34:50;23.00;88.70
814;DHT22;389;48.710;9.392;2023-08-30T15:37:16;23.00;88.10
814;DHT22;389;48.710;9.392;2023-08-30T15:39:42;22.90;88.20
814;DHT22;389;48.710;9.392;2023-08-30T15:42:08;22.90;90.40
814;DHT22;389;48.710;9.392;2023-08-30T15:44:34;22.90;91.00
814;DHT22;389;48.710;9.392;2023-08-30T15:46:59;22.90;91.30
814;DHT22;389;48.710;9.392;2023-08-30T15:49:25;22.90;90.70
814;DHT22;389;48.710;9.392;2023-08-30T15:51:50;22.80;90.40
814;DHT22;389;48.710;9.392;2023-08-30T15:54:16;22.90;91.00
814;DHT22;389;48.710;9.392;2023-08-30T15:56:42;22.90;91.20
814;DHT22;389;48.710;9.392;2023-08-30T15:59:09;23.00;91.00
814;DHT22;389;48.710;9.392;2023-08-30T16:01:35;22.90;91.50
814;DHT22;389;48.710;9.392;2023-08-30T16:04:01;22.80;92.00
814;DHT22;389;48.710;9.392;2023-08-30T16:06:26;22.70;91.90
814;DHT22;389;48.710;9.392;2023-08-30T16:08:52;22.60;92.00
814;DHT22;389;48.710;9.392;2023-08-30T16:11:18;22.60;92.30
814;DHT22;389;48.710;9.392;2023-08-30T16:13:44;22.60;92.00
814;DHT22;389;48.710;9.392;2023-08-30T16:16:09;22.60;92.20
814;DHT22;389;48.710;9.392;2023-08-30T16:18:35;22.50;92.30
814;DHT22;389;48.710;9.392;2023-08-30T16:21:00;22.50;92.00
814;DHT22;389;48.710;9.392;2023-08-30T16:23:26;22.50;91.90
814;DHT22;389;48.710;9.392;2023-08-30T16:25:57;22.50;92.00
814;DHT22;389;48.710;9.392;2023-08-30T16:28:23;22.50;91.90
814;DHT22;389;48.710;9.392;2023-08-30T16:30:49;22.50;91.90
814;DHT22;389;48.710;9.392;2023-08-30T16:33:15;22.60;91.90
814;DHT22;389;48.710;9.392;2023-08-30T16:35:43;22.50;91.80
814;DHT22;389;48.710;9.392;2023-08-30T16:38:11;22.60;92.20